Time;durP1;ratioP1;P1;durP2;ratioP2;P2;SDS_P1;SDS_P2;PMS_P1;PMS_P2;Temp;Humidity;BMP_temperature;BMP_pressure;BME280_temperature;BME280_humidity;BME280_pressure;Samples;Min_cycle;Max_cycle;Signal;HPM_P1;HPM_P2
2022/12/21 00:02:01;;;;;;;156.63;32.65;;;6.90;99.90;;;;;;5114592;27;20141;-45
2022/12/21 00:04:26;;;;;;;151.90;31.70;;;6.90;99.90;;;;;;5116471;27;20047;-42
2022/12/21 00:06:52;;;;;;;164.02;32.65;;;6.90;99.90;;;;;;5117993;27;20055;-45
2022/12/21 00:09:18;;;;;;;173.70;32.22;;;6.90;99.90;;;;;;5119628;27;20055;-48
2022/12/21 00:11:44;;;;;;;142.70;30.85;;;6.70;99.90;;;;;;5117856;27;20504;-46
2022/12/21 00:14:09;;;;;;;115.13;28.40;;;6.80;99.90;;;;;;5119218;27;20062;-46
2022/12/21 00:16:40;;;;;;;146.38;29.58;;;6.60;99.90;;;;;;5119017;27;20047;-48
2022/12/21 00:19:06;;;;;;;162.48;30.98;;;6.80;99.90;;;;;;5118957;27;20051;-48
2022/12/21 00:21:34;;;;;;;130.52;26.20;;;6.60;99.90;;;;;;5124509;27;20587;-43
2022/12/21 00:24:01;;;;;;;98.47;25.35;;;6.50;99.90;;;;;;5120694;27;20043;-44
2022/12/21 00:26:29;;;;;;;139.90;28.48;;;6.50;99.90;;;;;;5119813;27;20094;-44
2022/12/21 00:28:56;;;;;;;206.38;30.88;;;6.70;99.90;;;;;;5133029;27;20161;-50
2022/12/21 00:31:33;;;;;;;211.02;27.92;;;6.70;99.90;;;;;;5118617;27;20058;-46
2022/12/21 00:33:59;;;;;;;234.50;31.15;;;6.60;99.90;;;;;;5133332;27;20134;-45
2022/12/21 00:36:27;;;;;;;237.05;29.40;;;6.70;99.90;;;;;;5129217;27;20093;-47
2022/12/21 00:38:53;;;;;;;248.23;31.02;;;6.40;99.90;;;;;;5139575;27;20046;-45
2022/12/21 00:41:20;;;;;;;227.88;29.38;;;6.60;99.90;;;;;;5129725;27;20047;-45
2022/12/21 00:43:47;;;;;;;170.65;22.25;;;6.60;99.90;;;;;;5135134;27;20078;-46
2022/12/21 00:46:22;;;;;;;210.52;27.45;;;6.40;99.90;;;;;;5111608;27;20469;-45
2022/12/21 00:48:48;;;;;;;179.85;24.95;;;6.40;99.90;;;;;;5132240;27;20055;-48
2022/12/21 00:51:17;;;;;;;167.52;23.92;;;6.60;99.90;;;;;;5117638;27;20047;-43
2022/12/21 00:53:43;;;;;;;202.07;27.20;;;6.60;99.90;;;;;;5122155;27;20047;-45
2022/12/21 00:56:10;;;;;;;188.52;25.23;;;6.50;99.90;;;;;;5128329;27;20409;-44
2022/12/21 00:58:36;;;;;;;168.45;24.35;;;6.40;99.90;;;;;;5122449;27;20054;-48
2022/12/21 01:01:08;;;;;;;162.60;25.02;;;6.40;99.90;;;;;;5138851;27;20176;-47
2022/12/21 01:03:35;;;;;;;201.10;27.40;;;6.50;99.90;;;;;;5138932;27;20411;-46
2022/12/21 01:06:01;;;;;;;190.95;25.42;;;6.50;99.90;;;;;;5139700;27;20049;-47
2022/12/21 01:08:27;;;;;;;238.02;27.42;;;6.50;99.90;;;;;;5125404;27;20046;-43
2022/12/21 01:10:57;;;;;;;196.05;28.33;;;6.40;99.90;;;;;;5126893;27;20058;-47
2022/12/21 01:13:23;;;;;;;147.23;24.77;;;6.40;99.90;;;;;;5101329;27;20059;-44
2022/12/21 01:15:49;;;;;;;205.55;27.65;;;6.40;99.90;;;;;;5117845;27;20082;-47
2022/12/21 01:18:15;;;;;;;165.93;27.08;;;6.30;99.90;;;;;;5118358;27;20420;-43
2022/12/21 01:20:46;;;;;;;192.82;27.33;;;6.20;99.90;;;;;;5107270;27;20104;-47
2022/12/21 01:23:12;;;;;;;189.25;26.92;;;6.20;99.90;;;;;;5116768;27;20051;-46
2022/12/21 01:25:41;;;;;;;210.75;27.48;;;6.20;99.90;;;;;;5099253;27;20036;-43
2022/12/21 01:28:07;;;;;;;208.45;30.50;;;6.00;99.90;;;;;;5117713;27;20057;-43
2022/12/21 01:30:32;;;;;;;235.27;27.33;;;6.00;99.90;;;;;;5117489;27;20047;-46
2022/12/21 01:32:58;;;;;;;243.13;26.58;;;6.10;99.90;;;;;;5117559;27;20468;-45
2022/12/21 01:35:23;;;;;;;251.32;27.58;;;6.00;99.90;;;;;;5130849;27;20410;-45
2022/12/21 01:37:49;;;;;;;221.98;27.33;;;6.00;99.90;;;;;;5131378;27;20767;-48
2022/12/21 01:40:15;;;;;;;237.23;27.98;;;6.00;99.90;;;;;;5130552;27;20446;-46
2022/12/21 01:42:41;;;;;;;206.25;27.73;;;6.10;99.90;;;;;;5123972;27;20062;-45
2022/12/21 01:45:22;;;;;;;243.07;29.75;;;6.10;99.90;;;;;;5124003;27;20035;-48
2022/12/21 01:47:58;;;;;;;195.50;29.13;;;5.90;99.90;;;;;;5126861;27;20477;-44
2022/12/21 01:50:39;;;;;;;188.40;27.58;;;6.10;99.90;;;;;;5087562;27;20046;-45
2022/12/21 01:53:16;;;;;;;149.75;25.10;;;6.00;99.90;;;;;;5130671;27;20135;-47
2022/12/21 01:55:45;;;;;;;241.93;32.75;;;6.00;99.90;;;;;;5118061;27;20042;-46
2022/12/21 01:58:10;;;;;;;199.60;29.92;;;6.00;99.90;;;;;;5118148;27;20050;-47
2022/12/21 02:00:37;;;;;;;160.07;26.58;;;6.10;99.90;;;;;;5137996;27;20448;-44
2022/12/21 02:03:06;;;;;;;222.30;27.58;;;6.20;99.90;;;;;;5123289;27;20043;-50
2022/12/21 02:05:48;;;;;;;211.88;26.90;;;6.10;99.90;;;;;;5125191;27;20049;-45
2022/12/21 02:08:14;;;;;;;246.05;30.70;;;6.00;99.90;;;;;;5119776;27;20553;-45
2022/12/21 02:10:40;;;;;;;149.88;23.88;;;6.10;99.90;;;;;;5097329;27;20421;-48
2022/12/21 02:13:10;;;;;;;205.20;28.77;;;6.10;99.90;;;;;;5116104;27;20155;-45
2022/12/21 02:15:48;;;;;;;193.98;27.35;;;6.10;99.90;;;;;;5128407;27;20187;-44
2022/12/21 02:18:46;;;;;;;198.60;29.63;;;6.00;99.90;;;;;;5112648;27;20047;-43
2022/12/21 02:21:29;;;;;;;176.43;27.35;;;5.70;99.90;;;;;;5029271;28;20064;-43
2022/12/21 02:24:28;;;;;;;257.93;29.50;;;5.70;99.90;;;;;;5020161;28;20053;-45
2022/12/21 02:27:25;;;;;;;177.13;27.33;;;5.60;99.90;;;;;;5013388;28;20296;-44
2022/12/21 02:30:15;;;;;;;199.02;29.63;;;5.90;99.90;;;;;;5020804;28;20663;-43
2022/12/21 02:33:12;;;;;;;154.90;26.30;;;5.70;99.90;;;;;;5031928;28;20096;-46
2022/12/21 02:35:51;;;;;;;184.68;28.10;;;5.80;99.90;;;;;;5017205;28;20053;-46
2022/12/21 02:38:38;;;;;;;150.05;26.45;;;5.60;99.90;;;;;;5023922;28;20590;-47
2022/12/21 02:41:22;;;;;;;133.48;24.83;;;5.50;99.90;;;;;;5025153;28;20092;-46
2022/12/21 02:44:14;;;;;;;98.45;23.27;;;5.50;99.90;;;;;;5025809;28;20053;-42
2022/12/21 02:46:51;;;;;;;126.07;22.90;;;5.40;99.90;;;;;;5025791;28;20053;-49
2022/12/21 02:49:28;;;;;;;123.97;23.65;;;5.20;99.90;;;;;;5032354;28;20432;-46
2022/12/21 02:52:03;;;;;;;136.60;22.23;;;5.30;99.90;;;;;;4985807;28;20206;-47
2022/12/21 02:54:28;;;;;;;163.57;24.23;;;5.10;99.90;;;;;;4999785;28;20083;-44
2022/12/21 02:56:54;;;;;;;132.68;23.20;;;5.00;99.90;;;;;;5011191;28;20673;-46
2022/12/21 02:59:26;;;;;;;154.93;24.08;;;4.90;99.90;;;;;;5096396;27;20059;-45
2022/12/21 03:02:14;;;;;;;211.27;26.80;;;5.00;99.90;;;;;;5111782;27;20134;-46
2022/12/21 03:05:16;;;;;;;165.50;24.60;;;5.00;99.90;;;;;;5115082;27;20035;-47
2022/12/21 03:08:04;;;;;;;192.02;26.67;;;4.90;99.90;;;;;;5115748;27;20051;-44
2022/12/21 03:10:56;;;;;;;152.60;24.65;;;4.70;99.90;;;;;;5115468;27;20122;-46
2022/12/21 03:13:49;;;;;;;131.13;22.05;;;4.80;99.90;;;;;;5029361;28;20412;-44
2022/12/21 03:16:33;;;;;;;143.80;21.20;;;4.80;99.90;;;;;;5028496;28;20140;-43
2022/12/21 03:18:58;;;;;;;;;;;4.80;99.90;;;;;;5027867;28;20459;-44
2022/12/21 03:21:27;;;;;;;135.07;21.05;;;4.80;99.90;;;;;;5025767;28;20381;-45
2022/12/21 03:24:10;;;;;;;137.80;19.55;;;4.70;99.90;;;;;;5023367;28;20142;-46
2022/12/21 03:26:39;;;;;;;;;;;4.80;99.90;;;;;;5019914;28;20056;-43
2022/12/21 03:29:08;;;;;;;182.50;22.00;;;4.70;99.90;;;;;;5030807;28;20349;-44
2022/12/21 03:31:42;;;;;;;158.48;20.33;;;4.70;99.90;;;;;;5029486;28;20091;-46
2022/12/21 03:34:17;;;;;;;208.85;24.52;;;4.50;99.90;;;;;;5030209;28;20113;-47
2022/12/21 03:36:56;;;;;;;183.95;24.63;;;4.50;99.90;;;;;;5013812;28;20152;-44
2022/12/21 03:39:24;;;;;;;192.18;23.85;;;4.40;99.90;;;;;;5030920;28;20254;-43
2022/12/21 03:42:00;;;;;;;160.70;23.50;;;4.40;99.90;;;;;;5031832;28;20593;-47
2022/12/21 03:44:37;;;;;;;172.00;23.10;;;4.60;99.90;;;;;;5027318;28;20054;-44
2022/12/21 03:47:13;;;;;;;195.23;26.73;;;4.40;99.90;;;;;;5034993;28;20055;-43
2022/12/21 03:49:49;;;;;;;194.93;26.08;;;4.60;99.90;;;;;;5052768;27;20097;-47
2022/12/21 03:52:19;;;;;;;191.10;23.25;;;4.70;99.90;;;;;;5124992;27;20416;-44
2022/12/21 03:55:07;;;;;;;215.77;25.50;;;4.50;99.90;;;;;;5126317;27;20131;-45
2022/12/21 03:57:33;;;;;;;217.90;25.33;;;4.40;99.90;;;;;;5118621;27;20039;-46
2022/12/21 04:00:01;;;;;;;157.48;23.50;;;4.50;99.90;;;;;;5105759;27;20485;-45
2022/12/21 04:02:37;;;;;;;191.63;26.30;;;4.70;99.90;;;;;;5118021;27;20055;-48
2022/12/21 04:05:24;;;;;;;147.45;23.80;;;4.50;99.90;;;;;;5117834;27;20046;-47
2022/12/21 04:07:51;;;;;;;148.35;25.30;;;4.70;99.90;;;;;;5101154;27;20051;-47
2022/12/21 04:10:20;;;;;;;191.70;26.45;;;4.40;99.90;;;;;;5123855;27;20484;-43
2022/12/21 04:12:46;;;;;;;172.73;27.55;;;4.60;99.90;;;;;;5118009;27;20484;-44
2022/12/21 04:15:16;;;;;;;183.43;28.05;;;4.40;99.90;;;;;;5116734;27;21599;-45
2022/12/21 04:17:44;;;;;;;172.07;25.60;;;4.50;99.90;;;;;;5125331;27;20043;-44
2022/12/21 04:20:13;;;;;;;187.88;25.70;;;4.70;99.90;;;;;;5118319;27;20047;-46
2022/12/21 04:28:26;;;;;;;192.68;24.27;;;4.80;99.90;;;;;;5118181;27;20081;-48
2022/12/21 04:30:51;;;;;;;177.30;24.40;;;4.70;99.90;;;;;;5124851;27;20054;-44
2022/12/21 04:33:20;;;;;;;210.80;26.17;;;4.70;99.90;;;;;;5117612;27;20615;-47
2022/12/21 04:38:36;;;;;;;170.80;25.33;;;4.80;99.90;;;;;;5119164;27;20081;-45
2022/12/21 04:41:02;;;;;;;215.27;25.45;;;4.60;99.90;;;;;;5123405;27;20047;-48
2022/12/21 04:43:28;;;;;;;204.80;25.58;;;4.90;99.90;;;;;;5099765;27;20060;-44
2022/12/21 04:46:06;;;;;;;191.65;24.60;;;4.90;99.90;;;;;;5088659;27;20487;-45
2022/12/21 04:48:32;;;;;;;229.02;29.00;;;4.80;99.90;;;;;;5125441;27;20043;-46
2022/12/21 04:51:10;;;;;;;178.77;23.48;;;4.70;99.90;;;;;;5116759;27;20412;-47
2022/12/21 04:53:36;;;;;;;194.20;25.90;;;4.80;99.90;;;;;;5116851;27;20088;-46
2022/12/21 04:56:02;;;;;;;174.98;24.17;;;4.70;99.90;;;;;;5120054;27;20118;-44
2022/12/21 04:58:29;;;;;;;151.13;23.90;;;4.70;99.90;;;;;;5117554;27;20631;-48
2022/12/21 05:00:54;;;;;;;139.73;23.20;;;4.90;99.90;;;;;;5106107;27;20050;-44
2022/12/21 05:03:20;;;;;;;144.98;25.70;;;4.60;99.90;;;;;;5116883;27;20099;-42
2022/12/21 05:05:46;;;;;;;136.77;23.02;;;4.80;99.90;;;;;;5123667;27;20118;-42
2022/12/21 05:08:12;;;;;;;115.15;22.48;;;4.80;99.90;;;;;;5101855;27;20131;-47
2022/12/21 05:10:38;;;;;;;128.43;23.00;;;4.60;99.90;;;;;;5121640;27;20505;-48
2022/12/21 05:13:04;;;;;;;140.43;24.55;;;4.70;99.90;;;;;;5100521;27;20507;-44
2022/12/21 05:15:34;;;;;;;124.13;22.95;;;4.50;99.90;;;;;;5117736;27;20047;-46
2022/12/21 05:17:59;;;;;;;156.50;25.50;;;4.50;99.90;;;;;;5117708;27;20544;-46
2022/12/21 05:20:25;;;;;;;154.50;25.80;;;4.60;99.90;;;;;;5117346;27;20488;-42
2022/12/21 05:22:50;;;;;;;145.27;25.50;;;4.60;99.90;;;;;;5117243;27;20225;-43
2022/12/21 05:25:16;;;;;;;180.70;27.50;;;4.70;99.90;;;;;;5117278;27;20465;-42
2022/12/21 05:27:42;;;;;;;169.32;26.40;;;4.60;99.90;;;;;;5116130;27;20142;-48
2022/12/21 05:30:08;;;;;;;166.90;28.35;;;4.60;99.90;;;;;;5117458;27;20050;-42
2022/12/21 05:32:33;;;;;;;255.38;35.40;;;4.60;99.90;;;;;;5109647;27;20415;-45
2022/12/21 05:34:59;;;;;;;295.33;35.47;;;4.70;99.90;;;;;;5121969;27;20135;-47
2022/12/21 05:37:27;;;;;;;294.55;36.05;;;4.90;99.90;;;;;;5117279;27;20524;-44
2022/12/21 05:39:53;;;;;;;284.23;33.20;;;4.70;99.90;;;;;;5117114;27;20055;-45
2022/12/21 05:42:18;;;;;;;272.00;33.10;;;4.70;99.90;;;;;;5116354;27;20053;-43
2022/12/21 05:44:44;;;;;;;272.20;34.25;;;5.00;99.90;;;;;;5106956;27;20655;-48
2022/12/21 05:47:10;;;;;;;262.45;34.65;;;5.00;99.90;;;;;;5117259;27;20383;-45
2022/12/21 05:49:36;;;;;;;230.73;30.98;;;4.80;99.90;;;;;;5097962;27;20401;-47
2022/12/21 05:52:01;;;;;;;190.70;29.45;;;5.10;99.90;;;;;;5124872;27;20096;-42
2022/12/21 05:54:27;;;;;;;194.55;31.02;;;5.10;99.90;;;;;;5099058;27;20085;-43
2022/12/21 05:56:52;;;;;;;208.48;33.95;;;5.10;99.90;;;;;;5124031;27;20050;-46
2022/12/21 05:59:18;;;;;;;172.23;30.23;;;5.10;99.90;;;;;;5123639;27;20046;-43
2022/12/21 06:01:44;;;;;;;176.80;30.33;;;5.00;99.90;;;;;;5119083;27;20049;-48
2022/12/21 06:04:09;;;;;;;162.88;29.42;;;5.10;99.90;;;;;;5119636;27;20066;-46
2022/12/21 06:06:35;;;;;;;177.48;32.55;;;4.90;99.90;;;;;;5119751;27;20046;-49
2022/12/21 06:09:00;;;;;;;179.35;31.65;;;5.10;99.90;;;;;;5120285;27;20046;-43
2022/12/21 06:11:27;;;;;;;142.57;30.27;;;5.10;99.90;;;;;;5124504;27;20114;-42
2022/12/21 06:13:53;;;;;;;161.40;31.33;;;4.90;99.90;;;;;;5098267;27;20063;-46
2022/12/21 06:16:22;;;;;;;150.85;32.47;;;4.90;99.90;;;;;;5123673;27;20121;-45
2022/12/21 06:18:48;;;;;;;137.30;30.13;;;4.90;99.90;;;;;;5116898;27;20175;-43
2022/12/21 06:21:15;;;;;;;133.35;30.83;;;4.90;99.90;;;;;;5096468;27;20852;-44
2022/12/21 06:23:41;;;;;;;173.40;32.97;;;5.10;99.90;;;;;;5115751;27;20054;-45
2022/12/21 06:26:11;;;;;;;151.32;33.35;;;5.10;99.90;;;;;;5097259;27;20049;-44
2022/12/21 06:28:37;;;;;;;165.75;34.25;;;4.90;99.90;;;;;;5115693;27;20478;-43
2022/12/21 06:31:06;;;;;;;171.55;34.60;;;4.90;99.90;;;;;;5114708;27;20057;-47
2022/12/21 06:33:32;;;;;;;171.25;34.15;;;4.90;99.90;;;;;;5115686;27;20034;-45
2022/12/21 06:35:58;;;;;;;165.38;33.38;;;5.00;99.90;;;;;;5096940;27;20082;-45
2022/12/21 06:38:25;;;;;;;171.27;34.95;;;5.10;99.90;;;;;;5096570;27;20043;-46
2022/12/21 06:41:05;;;;;;;139.98;30.67;;;4.90;99.90;;;;;;5115324;27;20043;-43
2022/12/21 06:43:32;;;;;;;168.57;32.85;;;4.90;99.90;;;;;;5115550;27;20354;-46
2022/12/21 06:46:04;;;;;;;221.38;37.00;;;5.00;99.90;;;;;;5097920;27;20054;-47
2022/12/21 06:48:31;;;;;;;270.98;39.30;;;4.90;99.90;;;;;;5115850;27;20141;-45
2022/12/21 06:50:59;;;;;;;272.25;41.58;;;5.00;99.90;;;;;;5115301;27;20535;-45
2022/12/21 06:53:29;;;;;;;250.15;38.38;;;5.10;99.90;;;;;;5114089;27;20047;-41
2022/12/21 06:55:59;;;;;;;208.88;38.78;;;5.10;99.90;;;;;;5121399;27;20064;-46
2022/12/21 06:58:26;;;;;;;204.00;37.72;;;5.00;99.90;;;;;;5115592;27;20875;-45
2022/12/21 07:00:51;;;;;;;212.43;38.03;;;4.90;99.90;;;;;;5122834;27;20130;-48
2022/12/21 07:03:17;;;;;;;207.25;39.97;;;5.10;99.90;;;;;;5116381;27;20411;-47
2022/12/21 07:05:42;;;;;;;208.25;40.83;;;5.20;99.90;;;;;;5113550;27;20563;-45
2022/12/21 07:08:08;;;;;;;202.43;42.53;;;5.20;99.90;;;;;;5113229;27;20054;-50
2022/12/21 07:10:36;;;;;;;148.68;38.35;;;5.20;99.90;;;;;;5124237;27;20050;-45
2022/12/21 07:13:02;;;;;;;196.35;42.28;;;5.00;99.90;;;;;;5124470;27;20058;-46
2022/12/21 07:15:28;;;;;;;178.45;41.83;;;5.00;99.90;;;;;;5136951;27;20050;-45
2022/12/21 07:17:53;;;;;;;167.35;39.72;;;5.00;99.90;;;;;;5109222;27;20050;-42
2022/12/21 07:20:19;;;;;;;185.07;41.25;;;5.20;99.90;;;;;;5125786;27;20068;-42
2022/12/21 07:22:45;;;;;;;234.02;44.67;;;5.20;99.90;;;;;;5123024;27;20412;-44
2022/12/21 07:25:10;;;;;;;178.23;40.92;;;5.10;99.90;;;;;;5120402;27;20035;-49
2022/12/21 07:27:36;;;;;;;190.45;42.08;;;5.10;99.90;;;;;;5132273;27;20417;-48
2022/12/21 07:30:02;;;;;;;215.80;43.45;;;5.20;99.90;;;;;;5130199;27;20537;-47
2022/12/21 07:32:27;;;;;;;177.73;38.78;;;5.20;99.90;;;;;;5129910;27;20042;-46
2022/12/21 07:34:53;;;;;;;160.00;42.03;;;5.10;99.90;;;;;;5137472;27;20050;-44
2022/12/21 07:37:18;;;;;;;178.38;41.22;;;5.00;99.90;;;;;;5133696;27;20400;-47
2022/12/21 07:39:44;;;;;;;183.82;41.92;;;5.20;99.90;;;;;;5127487;27;20047;-43
2022/12/21 07:42:10;;;;;;;179.77;42.97;;;5.10;99.90;;;;;;5115528;27;20484;-46
2022/12/21 07:44:35;;;;;;;139.05;38.25;;;5.10;99.90;;;;;;5097273;28;20134;-47
2022/12/21 07:47:01;;;;;;;163.80;41.47;;;5.10;99.90;;;;;;5129749;27;20074;-43
2022/12/21 07:49:26;;;;;;;133.35;40.28;;;5.10;99.90;;;;;;5115433;27;20074;-45
2022/12/21 07:51:52;;;;;;;162.77;43.25;;;5.10;99.90;;;;;;5118338;27;20385;-43
2022/12/21 07:54:18;;;;;;;161.73;42.00;;;5.30;99.90;;;;;;5119593;27;20757;-46
2022/12/21 07:56:43;;;;;;;151.80;42.38;;;5.30;99.90;;;;;;5106286;27;20470;-47
2022/12/21 07:59:09;;;;;;;139.43;42.55;;;5.30;99.90;;;;;;5120565;27;20079;-44
2022/12/21 08:01:35;;;;;;;132.70;44.10;;;5.20;99.90;;;;;;5126422;27;20046;-48
2022/12/21 08:04:01;;;;;;;146.23;45.33;;;5.30;99.90;;;;;;5108330;27;20043;-42
2022/12/21 08:06:26;;;;;;;179.23;48.65;;;5.40;99.90;;;;;;5128656;27;20472;-42
2022/12/21 08:08:52;;;;;;;160.23;47.70;;;5.10;99.90;;;;;;5125955;27;20039;-48
2022/12/21 08:11:19;;;;;;;191.43;51.20;;;5.40;99.90;;;;;;5113693;27;20540;-47
2022/12/21 08:13:46;;;;;;;132.98;44.95;;;5.30;99.90;;;;;;5135261;27;20081;-48
2022/12/21 08:16:14;;;;;;;111.15;42.42;;;5.20;99.90;;;;;;5113796;27;20412;-43
2022/12/21 08:18:39;;;;;;;144.88;45.47;;;5.20;99.90;;;;;;5116548;27;20066;-46
2022/12/21 08:21:06;;;;;;;142.10;45.88;;;5.20;99.90;;;;;;5115261;27;20043;-46
2022/12/21 08:23:31;;;;;;;140.70;47.05;;;5.20;99.90;;;;;;5094685;27;20062;-44
2022/12/21 08:26:02;;;;;;;127.35;45.80;;;5.40;99.90;;;;;;5115422;27;20042;-47
2022/12/21 08:28:28;;;;;;;135.50;48.28;;;5.20;99.90;;;;;;5117798;27;20043;-45
2022/12/21 08:31:01;;;;;;;158.13;50.45;;;5.20;99.90;;;;;;5117485;27;20051;-43
2022/12/21 08:33:26;;;;;;;195.20;54.75;;;5.50;99.90;;;;;;5098662;27;20055;-45
2022/12/21 08:35:52;;;;;;;226.68;55.47;;;5.60;99.90;;;;;;5127663;27;20484;-48
2022/12/21 08:38:17;;;;;;;201.95;55.00;;;5.40;99.90;;;;;;5135243;27;20046;-48
2022/12/21 08:40:43;;;;;;;183.63;55.38;;;5.40;99.90;;;;;;5122749;27;20388;-42
2022/12/21 08:43:09;;;;;;;209.32;57.70;;;5.70;99.90;;;;;;5137424;27;20412;-45
2022/12/21 08:45:35;;;;;;;223.90;57.58;;;5.50;99.90;;;;;;5137178;27;20133;-48
2022/12/21 08:48:00;;;;;;;228.10;58.08;;;5.70;99.90;;;;;;5118653;27;20046;-44
2022/12/21 08:50:26;;;;;;;277.40;62.03;;;5.80;99.90;;;;;;5136891;27;20516;-42
2022/12/21 08:52:52;;;;;;;244.48;57.55;;;5.70;99.90;;;;;;5127887;27;20051;-42
2022/12/21 08:55:18;;;;;;;187.77;55.30;;;5.90;99.90;;;;;;5119532;27;20046;-44
2022/12/21 08:57:43;;;;;;;185.93;54.22;;;5.90;99.90;;;;;;5119145;27;20102;-42
2022/12/21 09:00:11;;;;;;;158.85;51.85;;;5.80;99.90;;;;;;5121091;27;20579;-44
2022/12/21 09:02:37;;;;;;;152.00;49.70;;;5.80;99.90;;;;;;5128905;27;20065;-44
2022/12/21 09:05:03;;;;;;;153.73;51.10;;;5.90;99.90;;;;;;5099967;27;20046;-47
2022/12/21 09:07:29;;;;;;;145.30;49.25;;;6.20;99.90;;;;;;5118656;27;20527;-46
2022/12/21 09:09:55;;;;;;;112.90;44.67;;;6.10;99.90;;;;;;5132892;27;20122;-47
2022/12/21 09:12:21;;;;;;;112.75;44.15;;;6.00;99.90;;;;;;5119897;27;20047;-45
2022/12/21 09:14:46;;;;;;;121.68;43.58;;;5.90;99.90;;;;;;5118337;27;20122;-45
2022/12/21 09:17:12;;;;;;;123.75;43.30;;;5.90;99.90;;;;;;5118826;27;20170;-45
2022/12/21 09:19:39;;;;;;;124.20;43.72;;;5.90;99.90;;;;;;5134972;27;20142;-43
2022/12/21 09:22:04;;;;;;;142.02;46.22;;;5.90;99.90;;;;;;5138290;27;20047;-46
2022/12/21 09:24:30;;;;;;;137.15;43.92;;;5.90;99.90;;;;;;5133900;27;20583;-44
2022/12/21 09:26:56;;;;;;;110.32;38.60;;;6.00;99.90;;;;;;5118247;27;20084;-43
2022/12/21 09:29:23;;;;;;;164.23;42.50;;;5.80;99.90;;;;;;5120988;27;20039;-48
2022/12/21 09:31:50;;;;;;;135.60;39.05;;;6.00;99.90;;;;;;5124114;27;20158;-45
2022/12/21 09:34:17;;;;;;;131.80;39.30;;;6.00;99.90;;;;;;5123656;27;20465;-45
2022/12/21 09:36:43;;;;;;;141.25;39.90;;;5.90;99.90;;;;;;5118746;27;20049;-47
2022/12/21 09:39:09;;;;;;;93.13;33.33;;;6.00;99.90;;;;;;5117868;27;20046;-45
2022/12/21 09:41:46;;;;;;;117.53;37.20;;;6.00;99.90;;;;;;5097145;27;20549;-45
2022/12/21 09:44:12;;;;;;;120.90;38.13;;;6.10;99.90;;;;;;5120725;27;20043;-45
2022/12/21 09:46:42;;;;;;;134.23;39.90;;;5.90;99.90;;;;;;5125997;27;20641;-45
2022/12/21 09:49:14;;;;;;;135.05;40.65;;;6.10;99.90;;;;;;5123845;27;20051;-46
2022/12/21 09:51:45;;;;;;;120.80;38.03;;;6.00;99.90;;;;;;5138803;27;20156;-43
2022/12/21 09:54:22;;;;;;;147.88;41.08;;;6.20;99.90;;;;;;5123325;27;20055;-47
2022/12/21 09:56:52;;;;;;;157.80;42.70;;;6.00;99.90;;;;;;5116953;27;20093;-45
2022/12/21 09:59:20;;;;;;;145.38;39.75;;;6.30;99.90;;;;;;5125005;27;20176;-46
2022/12/21 10:02:07;;;;;;;145.10;39.33;;;6.30;99.90;;;;;;5137037;27;20050;-43
2022/12/21 10:04:58;;;;;;;149.48;37.08;;;6.30;99.90;;;;;;5132072;27;20043;-44
2022/12/21 10:07:42;;;;;;;161.52;40.42;;;6.10;99.90;;;;;;5128176;27;20043;-42
2022/12/21 10:10:17;;;;;;;138.00;38.30;;;6.30;99.90;;;;;;5122731;27;20078;-44
2022/12/21 10:12:54;;;;;;;150.00;37.90;;;6.20;99.90;;;;;;5127216;27;20145;-47
2022/12/21 10:15:26;;;;;;;132.70;36.40;;;6.40;99.90;;;;;;5116238;27;20047;-48
2022/12/21 10:18:10;;;;;;;143.05;37.38;;;6.20;99.90;;;;;;5116840;27;20055;-44
2022/12/21 10:20:44;;;;;;;115.32;33.72;;;6.40;99.90;;;;;;5116294;27;20143;-46
2022/12/21 10:23:32;;;;;;;108.75;33.10;;;6.30;99.90;;;;;;5132268;27;20492;-43
2022/12/21 10:26:02;;;;;;;100.35;32.20;;;6.50;99.90;;;;;;5108313;27;20042;-48
2022/12/21 10:29:09;;;;;;;104.55;33.38;;;6.40;99.90;;;;;;5101338;27;20039;-47
2022/12/21 10:31:45;;;;;;;97.07;32.70;;;6.30;99.90;;;;;;5117289;27;20058;-46
2022/12/21 10:34:19;;;;;;;98.70;34.03;;;6.30;99.90;;;;;;5117120;27;20039;-46
2022/12/21 10:36:47;;;;;;;92.53;36.05;;;6.40;99.90;;;;;;5128366;27;20414;-44
2022/12/21 10:39:16;;;;;;;100.20;36.28;;;6.40;99.90;;;;;;5117197;27;20354;-47
2022/12/21 10:41:48;;;;;;;86.22;36.13;;;6.40;99.90;;;;;;5115664;27;20042;-42
2022/12/21 10:44:14;;;;;;;94.55;37.38;;;6.40;99.90;;;;;;5115859;27;20042;-43
2022/12/21 10:46:40;;;;;;;85.57;35.53;;;6.50;99.90;;;;;;5122388;27;20543;-44
2022/12/21 10:49:20;;;;;;;92.68;37.47;;;6.50;99.90;;;;;;5116448;27;20043;-47
2022/12/21 10:51:46;;;;;;;85.15;35.33;;;6.70;99.90;;;;;;5115878;27;20046;-43
2022/12/21 10:54:13;;;;;;;91.53;36.20;;;6.60;99.90;;;;;;5115728;27;20061;-41
2022/12/21 10:56:48;;;;;;;91.55;37.28;;;6.50;99.90;;;;;;5115790;27;20050;-45
2022/12/21 10:59:29;;;;;;;85.90;34.58;;;6.60;99.90;;;;;;5085587;27;20591;-43
2022/12/21 11:01:55;;;;;;;83.95;36.55;;;6.50;99.90;;;;;;5120031;27;20084;-43
2022/12/21 11:04:26;;;;;;;97.47;38.17;;;6.80;99.90;;;;;;5136577;27;20129;-45
2022/12/21 11:07:05;;;;;;;86.78;36.90;;;6.60;99.90;;;;;;5122724;27;20038;-42
2022/12/21 11:09:33;;;;;;;86.93;34.05;;;6.80;99.90;;;;;;5117022;27;20374;-43
2022/12/21 11:12:21;;;;;;;75.72;32.80;;;6.90;99.90;;;;;;5115934;27;20767;-44
2022/12/21 11:14:48;;;;;;;79.40;31.45;;;6.70;99.90;;;;;;5129591;27;20472;-42
2022/12/21 11:17:26;;;;;;;76.05;33.20;;;6.90;99.90;;;;;;5116268;27;20492;-42
2022/12/21 11:20:04;;;;;;;80.50;32.10;;;7.10;99.90;;;;;;5114968;27;20055;-41
2022/12/21 11:22:31;;;;;;;74.00;33.10;;;6.90;99.90;;;;;;5119259;27;20047;-45
2022/12/21 11:24:58;;;;;;;75.80;32.10;;;6.90;99.90;;;;;;5136379;27;20045;-45
2022/12/21 11:27:35;;;;;;;75.45;33.17;;;7.10;99.90;;;;;;5105048;27;20043;-43
2022/12/21 11:30:06;;;;;;;77.63;32.72;;;7.10;99.90;;;;;;5135539;27;20452;-42
2022/12/21 11:32:33;;;;;;;65.88;30.15;;;7.00;99.90;;;;;;5136251;27;20075;-45
2022/12/21 11:35:02;;;;;;;72.60;31.73;;;7.00;99.90;;;;;;5134731;27;20046;-43
2022/12/21 11:37:37;;;;;;;63.75;30.80;;;7.10;99.90;;;;;;5100588;27;20083;-45
2022/12/21 11:40:20;;;;;;;64.28;29.02;;;7.20;99.90;;;;;;5124696;27;20039;-43
2022/12/21 11:43:15;;;;;;;65.07;30.02;;;7.20;99.90;;;;;;5115311;27;20293;-45
2022/12/21 11:45:52;;;;;;;69.55;28.85;;;7.10;99.90;;;;;;5120130;27;20075;-46
2022/12/21 11:48:36;;;;;;;65.78;28.85;;;7.40;99.90;;;;;;5116842;27;20529;-47
2022/12/21 11:51:10;;;;;;;67.28;29.17;;;7.20;99.90;;;;;;5132881;27;20127;-42
2022/12/21 11:53:46;;;;;;;62.22;28.48;;;7.50;99.90;;;;;;5127181;27;20053;-44
2022/12/21 11:56:39;;;;;;;61.53;28.55;;;7.40;99.90;;;;;;5099286;27;20523;-44
2022/12/21 11:59:45;;;;;;;60.53;28.65;;;7.40;99.90;;;;;;5117190;27;20492;-47
2022/12/21 12:02:39;;;;;;;59.08;27.88;;;7.50;99.90;;;;;;5122970;27;20039;-44
2022/12/21 12:05:34;;;;;;;59.55;29.23;;;7.50;99.90;;;;;;5139488;27;20049;-42
2022/12/21 12:08:23;;;;;;;65.25;28.42;;;7.60;99.90;;;;;;5029814;28;20098;-47
2022/12/21 12:11:02;;;;;;;53.13;28.15;;;7.60;99.90;;;;;;5031839;28;20052;-44
2022/12/21 12:13:45;;;;;;;54.90;28.60;;;7.60;99.90;;;;;;5027962;28;20061;-46
2022/12/21 12:16:29;;;;;;;55.05;30.58;;;7.50;99.90;;;;;;5014923;28;20099;-45
2022/12/21 12:19:14;;;;;;;57.33;29.70;;;7.60;99.90;;;;;;5015229;28;20053;-47
2022/12/21 12:22:10;;;;;;;65.47;29.40;;;7.80;99.90;;;;;;5014881;28;20049;-49
2022/12/21 12:24:45;;;;;;;49.65;26.60;;;7.70;99.90;;;;;;5019832;28;20052;-45
2022/12/21 12:27:26;;;;;;;45.72;23.88;;;7.80;99.90;;;;;;5035015;28;20056;-47
2022/12/21 12:30:08;;;;;;;44.90;24.20;;;7.80;99.90;;;;;;5025605;28;20100;-44
2022/12/21 12:32:58;;;;;;;43.45;23.50;;;7.80;99.90;;;;;;5014672;28;20071;-45
2022/12/21 12:35:48;;;;;;;37.67;22.00;;;7.90;99.90;;;;;;5015667;28;20068;-44
2022/12/21 12:38:25;;;;;;;36.63;20.88;;;7.90;99.90;;;;;;5034867;28;20059;-42
2022/12/21 12:41:12;;;;;;;42.30;23.17;;;7.80;99.90;;;;;;5020659;28;20064;-45
2022/12/21 12:44:13;;;;;;;39.75;23.17;;;8.00;99.90;;;;;;5034703;28;20242;-47
2022/12/21 12:46:51;;;;;;;39.70;25.10;;;7.90;99.90;;;;;;5116084;27;20479;-44
2022/12/21 12:49:34;;;;;;;39.88;24.95;;;8.00;99.90;;;;;;5100319;27;20051;-42
2022/12/21 12:52:08;;;;;;;;;;;8.00;99.90;;;;;;5131734;27;20148;-48
2022/12/21 12:55:03;;;;;;;46.28;26.98;;;8.00;99.90;;;;;;5098937;27;19998;-44
2022/12/21 12:57:44;;;;;;;45.30;30.70;;;7.90;99.90;;;;;;5125366;27;20666;-44
2022/12/21 13:00:13;;;;;;;47.90;31.25;;;7.90;99.90;;;;;;5132803;27;20496;-45
2022/12/21 13:02:45;;;;;;;51.70;32.92;;;7.80;99.90;;;;;;5107140;27;20540;-43